Time;durP1;ratioP1;P1;durP2;ratioP2;P2;SDS_P1;SDS_P2;PMS_P1;PMS_P2;Temp;Humidity;BMP_temperature;BMP_pressure;BME280_temperature;BME280_humidity;BME280_pressure;Samples;Min_cycle;Max_cycle;Signal;HPM_P1;HPM_P2
2024/01/12 00:01:17;;;;;;;62.92;24.23;;;3.90;94.50;;;;;;5107735;28;20028;-59
2024/01/12 00:03:43;;;;;;;60.63;22.35;;;3.90;94.60;;;;;;5107652;28;20051;-59
2024/01/12 00:06:08;;;;;;;53.60;21.90;;;4.00;94.60;;;;;;5107824;28;20028;-59
2024/01/12 00:08:36;;;;;;;63.08;24.25;;;3.90;94.50;;;;;;5072506;28;20046;-59
2024/01/12 00:11:01;;;;;;;55.90;22.75;;;3.90;94.50;;;;;;5107512;28;20035;-59
2024/01/12 00:13:27;;;;;;;59.33;23.15;;;3.90;94.50;;;;;;5107583;28;20456;-59
2024/01/12 00:15:52;;;;;;;59.42;22.60;;;3.90;94.50;;;;;;5107400;28;20028;-58
2024/01/12 00:18:18;;;;;;;51.65;23.33;;;3.90;94.50;;;;;;5107501;28;20031;-59
2024/01/12 00:20:44;;;;;;;61.50;23.67;;;4.00;94.50;;;;;;5107183;28;20098;-59
2024/01/12 00:23:12;;;;;;;59.35;23.10;;;3.90;94.40;;;;;;5107132;28;20052;-59
2024/01/12 00:25:38;;;;;;;59.25;23.27;;;3.90;94.40;;;;;;5107424;28;20024;-59
2024/01/12 00:28:04;;;;;;;56.28;23.13;;;3.90;94.40;;;;;;5089114;28;20030;-59
2024/01/12 00:30:30;;;;;;;54.38;22.98;;;3.90;94.50;;;;;;5107357;28;20062;-59
2024/01/12 00:32:56;;;;;;;47.47;22.63;;;3.90;94.40;;;;;;5088863;28;20109;-58
2024/01/12 00:35:21;;;;;;;47.35;21.67;;;3.90;94.40;;;;;;5107057;28;20032;-59
2024/01/12 00:37:49;;;;;;;54.17;22.33;;;3.80;94.30;;;;;;5089078;28;20020;-59
2024/01/12 00:40:15;;;;;;;48.13;22.90;;;3.80;94.30;;;;;;5107133;28;20024;-59
2024/01/12 00:42:40;;;;;;;52.15;22.63;;;3.80;94.30;;;;;;5106758;28;20476;-57
2024/01/12 00:45:07;;;;;;;44.90;23.00;;;3.80;94.30;;;;;;5107226;28;20065;-59
2024/01/12 00:47:33;;;;;;;48.80;22.90;;;3.80;94.30;;;;;;5107153;28;20023;-59
2024/01/12 00:49:59;;;;;;;47.72;22.80;;;3.80;94.30;;;;;;5088988;28;20059;-59
2024/01/12 00:52:25;;;;;;;54.42;23.13;;;3.80;94.30;;;;;;5106733;28;20392;-59
2024/01/12 00:54:50;;;;;;;51.60;22.98;;;3.80;94.30;;;;;;5106898;28;20111;-59
2024/01/12 00:57:16;;;;;;;43.80;22.75;;;3.70;94.30;;;;;;5088802;28;20028;-59
2024/01/12 00:59:41;;;;;;;55.75;23.05;;;3.70;94.40;;;;;;5106405;28;20024;-59
2024/01/12 01:02:07;;;;;;;49.45;22.98;;;3.70;94.40;;;;;;5106818;28;20032;-59
2024/01/12 01:04:32;;;;;;;54.63;24.02;;;3.70;94.40;;;;;;5106814;28;20027;-59
2024/01/12 01:06:58;;;;;;;43.92;21.80;;;3.70;94.40;;;;;;5088603;28;20039;-59
2024/01/12 01:09:24;;;;;;;51.00;22.90;;;3.70;94.30;;;;;;5088467;28;20095;-59
2024/01/12 01:11:52;;;;;;;49.22;22.73;;;3.80;94.30;;;;;;5106677;28;20028;-59
2024/01/12 01:14:18;;;;;;;41.92;22.90;;;3.70;94.30;;;;;;5106718;28;20016;-59
2024/01/12 01:16:43;;;;;;;43.85;22.10;;;3.70;94.30;;;;;;5106482;28;20024;-59
2024/01/12 01:19:09;;;;;;;46.78;22.70;;;3.70;94.40;;;;;;5106626;28;20024;-59
2024/01/12 01:21:35;;;;;;;49.78;22.50;;;3.60;94.30;;;;;;5106384;28;20107;-59
2024/01/12 01:24:00;;;;;;;43.75;23.67;;;3.70;94.40;;;;;;5106694;28;20402;-59
2024/01/12 01:26:26;;;;;;;49.70;23.63;;;3.60;94.40;;;;;;5106608;28;20032;-59
2024/01/12 01:28:52;;;;;;;43.40;22.42;;;3.70;94.40;;;;;;5106516;28;20031;-59
2024/01/12 01:31:17;;;;;;;45.70;22.10;;;3.70;94.40;;;;;;5106004;28;20036;-59
2024/01/12 01:33:43;;;;;;;52.95;23.25;;;3.60;94.40;;;;;;5105933;28;20515;-59
2024/01/12 01:36:09;;;;;;;44.17;22.55;;;3.70;94.40;;;;;;5088126;28;20098;-59
2024/01/12 01:38:34;;;;;;;51.88;23.67;;;3.60;94.40;;;;;;5106380;28;20024;-59
2024/01/12 01:41:01;;;;;;;46.22;22.73;;;3.60;94.40;;;;;;5106268;28;20024;-59
2024/01/12 01:43:26;;;;;;;44.60;21.85;;;3.60;94.40;;;;;;5106358;28;20217;-59
2024/01/12 01:45:52;;;;;;;44.28;23.17;;;3.60;94.40;;;;;;5106263;28;20032;-59
2024/01/12 01:48:17;;;;;;;43.20;24.08;;;3.60;94.40;;;;;;5106009;28;20020;-59
2024/01/12 01:50:43;;;;;;;52.38;24.00;;;3.60;94.40;;;;;;5106301;28;20032;-59
2024/01/12 01:53:09;;;;;;;44.92;22.77;;;3.70;94.50;;;;;;5104960;28;20028;-59
2024/01/12 01:55:34;;;;;;;43.40;23.63;;;3.60;94.50;;;;;;5105914;28;20047;-59
2024/01/12 01:58:00;;;;;;;40.10;22.58;;;3.60;94.40;;;;;;5105846;28;20024;-59
2024/01/12 02:00:26;;;;;;;39.15;23.45;;;3.60;94.40;;;;;;5106185;28;20025;-59
2024/01/12 02:02:51;;;;;;;48.25;22.40;;;3.60;94.40;;;;;;5088055;28;20553;-59
2024/01/12 02:05:17;;;;;;;48.10;24.20;;;3.50;94.40;;;;;;5106045;28;20071;-58
2024/01/12 02:07:42;;;;;;;40.95;23.35;;;3.50;94.70;;;;;;5104942;28;20050;-58
2024/01/12 02:10:09;;;;;;;43.15;22.35;;;3.50;94.40;;;;;;5108237;28;20043;-58
2024/01/12 02:12:37;;;;;;;46.30;24.27;;;3.50;94.40;;;;;;5109957;28;20039;-58
2024/01/12 02:15:07;;;;;;;43.88;24.27;;;3.60;94.40;;;;;;5109980;28;20028;-58
2024/01/12 02:17:33;;;;;;;40.97;22.75;;;3.50;94.40;;;;;;5092343;28;20563;-59
2024/01/12 02:19:59;;;;;;;47.80;24.35;;;3.50;94.40;;;;;;5110779;28;20049;-59
2024/01/12 02:22:25;;;;;;;44.55;23.55;;;3.70;94.50;;;;;;5091729;28;20160;-59
2024/01/12 02:24:51;;;;;;;40.00;23.52;;;3.50;94.50;;;;;;5109812;28;20032;-59
2024/01/12 02:27:16;;;;;;;44.92;23.52;;;3.50;94.50;;;;;;5109774;28;20093;-59
2024/01/12 02:29:42;;;;;;;38.35;23.35;;;3.50;94.50;;;;;;5109733;28;20480;-59
2024/01/12 02:32:08;;;;;;;45.55;24.20;;;3.50;94.50;;;;;;5091308;28;20120;-59
2024/01/12 02:34:34;;;;;;;44.55;23.13;;;3.40;94.50;;;;;;5109408;28;20036;-59
2024/01/12 02:36:59;;;;;;;43.42;24.27;;;3.50;94.50;;;;;;5109456;28;20047;-59
2024/01/12 02:39:25;;;;;;;45.53;23.25;;;3.40;94.50;;;;;;5109342;28;20509;-59
2024/01/12 02:41:50;;;;;;;45.20;24.15;;;3.40;94.50;;;;;;5109264;28;20087;-59
2024/01/12 02:44:16;;;;;;;39.28;21.88;;;3.40;94.50;;;;;;5109426;28;20186;-59
2024/01/12 02:46:41;;;;;;;39.40;23.50;;;3.40;94.50;;;;;;5091207;28;20028;-59
2024/01/12 02:49:08;;;;;;;37.85;23.13;;;3.40;94.60;;;;;;5109291;28;20468;-59
2024/01/12 02:51:34;;;;;;;46.13;23.73;;;3.40;94.60;;;;;;5091287;28;20028;-59
2024/01/12 02:53:59;;;;;;;44.10;24.00;;;3.40;94.50;;;;;;5109065;28;20034;-59
2024/01/12 02:56:25;;;;;;;47.63;23.45;;;3.40;94.50;;;;;;5109405;28;20024;-59
2024/01/12 02:58:51;;;;;;;50.03;25.10;;;3.40;94.50;;;;;;5109159;28;20487;-59
2024/01/12 03:01:19;;;;;;;44.38;24.15;;;3.40;94.50;;;;;;5108721;28;20054;-59
2024/01/12 03:03:45;;;;;;;40.75;24.08;;;3.40;94.80;;;;;;5109156;28;20099;-59
2024/01/12 03:06:11;;;;;;;37.95;24.02;;;3.40;94.60;;;;;;5109043;28;20027;-59
2024/01/12 03:08:36;;;;;;;48.60;24.52;;;3.40;94.60;;;;;;5108709;28;20392;-59
2024/01/12 03:11:02;;;;;;;43.08;24.35;;;3.40;94.50;;;;;;5108807;28;20059;-59
2024/01/12 03:13:28;;;;;;;42.22;24.48;;;3.40;94.50;;;;;;5108842;28;20034;-59
2024/01/12 03:15:53;;;;;;;41.83;24.70;;;3.40;94.50;;;;;;5108933;28;20035;-59
2024/01/12 03:18:19;;;;;;;42.60;24.45;;;3.30;94.50;;;;;;5108604;28;20043;-59
2024/01/12 03:20:45;;;;;;;41.00;23.50;;;3.30;94.50;;;;;;5108535;28;20055;-59
2024/01/12 03:23:10;;;;;;;44.05;23.38;;;3.40;94.60;;;;;;5108592;28;20028;-59
2024/01/12 03:25:36;;;;;;;38.83;23.95;;;3.30;94.50;;;;;;5108658;28;20043;-59
2024/01/12 03:28:02;;;;;;;38.88;23.60;;;3.30;94.50;;;;;;5108472;28;20032;-59
2024/01/12 03:30:27;;;;;;;44.85;24.92;;;3.40;94.50;;;;;;5108432;28;20057;-59
2024/01/12 03:32:53;;;;;;;36.15;23.20;;;3.40;94.50;;;;;;5108508;28;20058;-59
2024/01/12 03:35:18;;;;;;;37.78;24.40;;;3.30;94.40;;;;;;5108016;28;20047;-59
2024/01/12 03:37:45;;;;;;;44.60;23.75;;;3.30;94.40;;;;;;5108311;28;20012;-59
2024/01/12 03:40:11;;;;;;;42.20;23.98;;;3.30;94.40;;;;;;5108280;28;20050;-59
2024/01/12 03:42:37;;;;;;;39.60;23.90;;;3.30;94.50;;;;;;5108122;28;20032;-59
2024/01/12 03:45:03;;;;;;;42.05;24.63;;;3.30;94.50;;;;;;5108429;28;20092;-59
2024/01/12 03:47:29;;;;;;;36.65;22.38;;;3.30;94.50;;;;;;5108431;28;20028;-59
2024/01/12 03:49:54;;;;;;;41.38;24.73;;;3.30;94.50;;;;;;5108988;28;20042;-59
2024/01/12 03:52:20;;;;;;;37.78;22.95;;;3.30;94.50;;;;;;5107986;28;20460;-59
2024/01/12 03:54:45;;;;;;;37.63;24.25;;;3.30;94.50;;;;;;5108141;28;20074;-59
2024/01/12 03:57:11;;;;;;;36.97;24.05;;;3.30;94.50;;;;;;5107882;28;20051;-59
2024/01/12 03:59:36;;;;;;;40.85;24.52;;;3.30;94.50;;;;;;5089751;28;20058;-59
2024/01/12 04:02:03;;;;;;;44.40;23.50;;;3.30;94.40;;;;;;5107863;28;20540;-59
2024/01/12 04:04:28;;;;;;;38.60;23.45;;;3.30;94.50;;;;;;5107864;28;20028;-59
2024/01/12 04:06:54;;;;;;;39.40;23.80;;;3.30;94.50;;;;;;5107788;28;20070;-59
2024/01/12 04:09:19;;;;;;;40.08;24.73;;;3.30;94.50;;;;;;5107365;28;20035;-59
2024/01/12 04:11:45;;;;;;;41.00;24.80;;;3.30;94.50;;;;;;5108191;28;20035;-59
2024/01/12 04:14:10;;;;;;;39.08;24.15;;;3.20;94.50;;;;;;5107426;28;20032;-60
2024/01/12 04:16:36;;;;;;;36.47;22.58;;;3.20;94.80;;;;;;5107619;28;20559;-59
2024/01/12 04:19:02;;;;;;;38.42;24.05;;;3.20;94.50;;;;;;5107559;28;20031;-59
2024/01/12 04:21:27;;;;;;;40.85;25.10;;;3.20;94.50;;;;;;5107542;28;20053;-59
2024/01/12 04:23:53;;;;;;;36.10;23.35;;;3.30;94.50;;;;;;5089394;28;20024;-59
2024/01/12 04:26:19;;;;;;;36.50;22.77;;;3.20;94.50;;;;;;5089269;28;20059;-59
2024/01/12 04:28:44;;;;;;;44.97;24.80;;;3.20;94.50;;;;;;5107158;28;20024;-59
2024/01/12 04:31:10;;;;;;;36.42;22.67;;;3.20;94.50;;;;;;5107048;28;20456;-59
2024/01/12 04:33:35;;;;;;;38.65;23.58;;;3.30;94.50;;;;;;5106571;28;20058;-51
2024/01/12 04:36:01;;;;;;;42.55;23.65;;;3.20;94.50;;;;;;5088862;28;20059;-51
2024/01/12 04:38:27;;;;;;;35.05;22.98;;;3.20;94.50;;;;;;5088979;28;20028;-50
2024/01/12 04:40:53;;;;;;;37.28;23.38;;;3.20;94.50;;;;;;5088971;28;20016;-51
2024/01/12 04:43:19;;;;;;;41.00;24.58;;;3.20;94.50;;;;;;5107126;28;20029;-50
2024/01/12 04:45:44;;;;;;;39.85;23.05;;;3.20;94.50;;;;;;5107157;28;20028;-51
2024/01/12 04:48:10;;;;;;;36.55;24.02;;;3.20;94.50;;;;;;5106918;28;20032;-51
2024/01/12 04:50:35;;;;;;;37.83;24.17;;;3.20;94.50;;;;;;5106898;28;20031;-51
2024/01/12 04:53:01;;;;;;;44.00;24.30;;;3.20;94.50;;;;;;5106785;28;20035;-51
2024/01/12 04:55:27;;;;;;;41.42;22.98;;;3.20;94.50;;;;;;5107022;28;20460;-51
2024/01/12 04:57:53;;;;;;;39.40;23.25;;;3.20;94.50;;;;;;5106844;28;20043;-51
2024/01/12 05:00:18;;;;;;;38.55;24.23;;;3.20;94.50;;;;;;5106658;28;20020;-51
2024/01/12 05:02:44;;;;;;;38.42;24.17;;;3.20;94.40;;;;;;5106674;28;20032;-51
2024/01/12 05:05:09;;;;;;;38.17;24.48;;;3.20;94.40;;;;;;5106614;28;20088;-51
2024/01/12 05:07:35;;;;;;;35.00;22.50;;;3.20;94.40;;;;;;5088280;28;20032;-51
2024/01/12 05:10:03;;;;;;;41.47;25.02;;;3.20;94.40;;;;;;5106475;28;20028;-51
2024/01/12 05:12:28;;;;;;;42.47;25.73;;;3.20;94.40;;;;;;5106522;28;20032;-51
2024/01/12 05:14:54;;;;;;;39.13;23.73;;;3.10;94.40;;;;;;5106559;28;20099;-51
2024/01/12 05:17:19;;;;;;;41.22;24.88;;;3.20;94.40;;;;;;5106618;28;20040;-51
2024/01/12 05:19:45;;;;;;;39.83;25.13;;;3.20;94.40;;;;;;5106549;28;20024;-51
2024/01/12 05:22:11;;;;;;;38.65;24.60;;;3.10;94.40;;;;;;5106546;28;20053;-51
2024/01/12 05:24:37;;;;;;;42.30;25.05;;;3.20;94.30;;;;;;5106379;28;20106;-51
2024/01/12 05:27:03;;;;;;;38.97;23.85;;;3.10;94.30;;;;;;5088216;28;20032;-51
2024/01/12 05:29:28;;;;;;;40.17;24.88;;;3.10;94.30;;;;;;5106259;28;20024;-51
2024/01/12 05:31:54;;;;;;;37.85;24.63;;;3.10;94.40;;;;;;5106203;28;20032;-50
2024/01/12 05:34:19;;;;;;;42.60;24.80;;;3.10;94.40;;;;;;5106337;28;20033;-51
2024/01/12 05:36:45;;;;;;;40.70;25.73;;;3.10;94.40;;;;;;5106344;28;20032;-51
2024/01/12 05:39:10;;;;;;;37.70;24.63;;;3.10;94.40;;;;;;5106182;28;20039;-51
2024/01/12 05:41:36;;;;;;;38.28;24.38;;;3.10;94.40;;;;;;5088239;28;20056;-51
2024/01/12 05:44:02;;;;;;;41.83;25.55;;;3.10;94.40;;;;;;5088148;28;20366;-51
2024/01/12 05:46:27;;;;;;;38.30;25.20;;;3.20;94.40;;;;;;5091529;28;20028;-50
2024/01/12 05:48:53;;;;;;;42.75;25.80;;;3.10;94.50;;;;;;5110421;28;20058;-51
2024/01/12 05:51:19;;;;;;;43.80;25.23;;;3.20;94.60;;;;;;5110312;28;20043;-51
2024/01/12 05:53:44;;;;;;;47.35;26.52;;;3.20;94.60;;;;;;5110361;28;20046;-51
2024/01/12 05:56:10;;;;;;;48.22;26.17;;;3.20;94.60;;;;;;5092008;28;20024;-51
2024/01/12 05:58:35;;;;;;;49.30;25.83;;;3.20;94.60;;;;;;5110048;28;20024;-50
2024/01/12 06:01:01;;;;;;;62.65;27.10;;;3.20;94.60;;;;;;5110195;28;20020;-51
2024/01/12 06:03:28;;;;;;;50.25;27.20;;;3.20;94.60;;;;;;5091953;28;20050;-51
2024/01/12 06:05:54;;;;;;;53.22;27.35;;;3.20;94.50;;;;;;5110075;28;20630;-51
2024/01/12 06:08:20;;;;;;;50.88;26.30;;;3.20;94.50;;;;;;5110010;28;20032;-51
2024/01/12 06:10:45;;;;;;;60.85;27.17;;;3.20;94.60;;;;;;5109949;28;20099;-51
2024/01/12 06:13:11;;;;;;;64.65;26.80;;;3.20;94.90;;;;;;5109899;28;20103;-51
2024/01/12 06:15:37;;;;;;;68.72;28.40;;;3.20;94.60;;;;;;5109825;28;20464;-51
2024/01/12 06:18:03;;;;;;;69.15;29.42;;;3.30;94.70;;;;;;5109736;28;20077;-51
2024/01/12 06:20:29;;;;;;;58.85;29.08;;;3.30;94.70;;;;;;5091593;28;20069;-51
2024/01/12 06:22:54;;;;;;;62.25;27.70;;;3.20;94.60;;;;;;5109573;28;20032;-51
2024/01/12 06:25:20;;;;;;;57.83;27.75;;;3.20;94.60;;;;;;5109689;28;20087;-51
2024/01/12 06:27:45;;;;;;;63.30;28.70;;;3.20;94.60;;;;;;5109697;28;20060;-51
2024/01/12 06:30:11;;;;;;;71.70;30.08;;;3.20;94.70;;;;;;5109637;28;20395;-51
2024/01/12 06:32:38;;;;;;;72.97;29.20;;;3.30;94.80;;;;;;5109269;28;20032;-49
2024/01/12 06:35:04;;;;;;;81.32;30.75;;;3.30;94.90;;;;;;5109332;28;20031;-51
2024/01/12 06:37:30;;;;;;;75.85;29.17;;;3.30;94.80;;;;;;5109458;28;20086;-51
2024/01/12 06:39:57;;;;;;;72.00;29.65;;;3.30;94.80;;;;;;5091387;28;20024;-51
2024/01/12 06:42:23;;;;;;;77.70;30.52;;;3.30;94.80;;;;;;5109495;28;20115;-51
2024/01/12 06:44:49;;;;;;;71.40;29.10;;;3.30;94.80;;;;;;5109245;28;20024;-50
2024/01/12 06:47:14;;;;;;;100.20;31.40;;;3.30;94.80;;;;;;5091064;28;20084;-51
2024/01/12 06:49:43;;;;;;;78.38;29.70;;;3.30;94.90;;;;;;5109255;28;20024;-50
2024/01/12 06:52:09;;;;;;;62.03;27.98;;;3.30;94.90;;;;;;5108851;28;20087;-51
2024/01/12 06:54:35;;;;;;;67.43;29.55;;;3.30;95.00;;;;;;5109094;28;20023;-51
2024/01/12 06:57:00;;;;;;;78.40;30.08;;;3.30;95.00;;;;;;5108571;28;20081;-51
2024/01/12 06:59:26;;;;;;;71.57;31.27;;;3.30;94.90;;;;;;5108982;28;20103;-51
2024/01/12 07:01:51;;;;;;;74.10;31.55;;;3.30;95.20;;;;;;5108484;28;20024;-51
2024/01/12 07:04:17;;;;;;;64.88;29.88;;;3.30;94.90;;;;;;5108596;28;20032;-51
2024/01/12 07:06:43;;;;;;;69.78;29.17;;;3.30;94.80;;;;;;5109006;28;20038;-51
2024/01/12 07:09:12;;;;;;;60.47;30.45;;;3.20;94.80;;;;;;5108723;28;20043;-51
2024/01/12 07:11:41;;;;;;;73.93;30.20;;;3.30;94.90;;;;;;5110736;28;20034;-51
2024/01/12 07:14:08;;;;;;;71.13;29.35;;;3.30;94.90;;;;;;5127635;28;20028;-51
2024/01/12 07:16:34;;;;;;;70.40;31.17;;;3.30;94.90;;;;;;5127059;28;20034;-51
2024/01/12 07:18:59;;;;;;;70.65;28.48;;;3.30;94.90;;;;;;5127072;28;20084;-51
2024/01/12 07:21:25;;;;;;;73.07;29.58;;;3.30;94.90;;;;;;5127021;28;20016;-51
2024/01/12 07:23:50;;;;;;;65.93;28.70;;;3.20;94.80;;;;;;5126794;28;20083;-51
2024/01/12 07:26:16;;;;;;;65.82;28.42;;;3.20;94.80;;;;;;5108446;28;20035;-51
2024/01/12 07:28:42;;;;;;;65.85;29.88;;;3.20;94.80;;;;;;5124075;28;20023;-51
2024/01/12 07:31:07;;;;;;;73.53;28.98;;;3.20;94.80;;;;;;5126578;28;20026;-51
2024/01/12 07:33:33;;;;;;;70.40;29.02;;;3.20;94.80;;;;;;5110475;28;20042;-51
2024/01/12 07:35:59;;;;;;;78.35;31.08;;;3.20;94.90;;;;;;5090036;28;20044;-51
2024/01/12 07:38:24;;;;;;;77.53;30.52;;;3.20;94.90;;;;;;5095048;28;20024;-51
2024/01/12 07:40:50;;;;;;;73.38;29.13;;;3.20;94.90;;;;;;5105561;28;20046;-51
2024/01/12 07:43:15;;;;;;;69.15;28.27;;;3.20;94.90;;;;;;5101059;28;20037;-51
2024/01/12 07:45:41;;;;;;;71.22;28.90;;;3.20;94.80;;;;;;5087619;28;20088;-51
2024/01/12 07:48:07;;;;;;;62.85;27.67;;;3.20;94.80;;;;;;5101925;28;20044;-51
2024/01/12 07:50:33;;;;;;;64.72;29.65;;;3.20;94.80;;;;;;5115796;28;20052;-51
2024/01/12 07:52:59;;;;;;;54.13;28.35;;;3.20;94.80;;;;;;5102900;28;20043;-51
2024/01/12 07:55:24;;;;;;;63.55;27.23;;;3.20;94.80;;;;;;5117592;28;20104;-51
2024/01/12 07:57:50;;;;;;;66.75;28.27;;;3.30;94.90;;;;;;5107497;28;20028;-51
2024/01/12 08:00:16;;;;;;;70.15;28.70;;;3.20;94.90;;;;;;5123233;28;20020;-51
2024/01/12 08:02:42;;;;;;;65.85;29.23;;;3.30;95.00;;;;;;5102032;28;20034;-51
2024/01/12 08:05:08;;;;;;;75.85;29.33;;;3.30;95.00;;;;;;5107650;28;20032;-50
2024/01/12 08:07:33;;;;;;;96.18;30.23;;;3.30;95.20;;;;;;5106660;28;20157;-51
2024/01/12 08:09:59;;;;;;;76.20;29.63;;;3.30;95.00;;;;;;5112133;28;20485;-51
2024/01/12 08:12:24;;;;;;;74.97;29.70;;;3.30;95.00;;;;;;5104590;28;20083;-51
2024/01/12 08:14:50;;;;;;;75.93;31.42;;;3.30;95.10;;;;;;5107230;28;20028;-51
2024/01/12 08:17:15;;;;;;;98.45;32.25;;;3.40;95.10;;;;;;5108675;28;20027;-50
2024/01/12 08:19:41;;;;;;;99.65;32.67;;;3.40;95.10;;;;;;5085411;28;20024;-51
2024/01/12 08:22:07;;;;;;;103.43;30.30;;;3.40;95.10;;;;;;5087073;28;20036;-51
2024/01/12 08:24:32;;;;;;;79.72;29.20;;;3.40;95.00;;;;;;5102632;28;20017;-51
2024/01/12 08:26:58;;;;;;;80.10;27.75;;;3.40;94.90;;;;;;5086846;28;20088;-51
2024/01/12 08:29:23;;;;;;;67.35;27.75;;;3.40;94.80;;;;;;5086621;28;20028;-51
2024/01/12 08:31:51;;;;;;;71.75;27.75;;;3.30;94.80;;;;;;5092761;28;20039;-51
2024/01/12 08:34:19;;;;;;;115.63;32.17;;;3.30;94.70;;;;;;5107342;28;20114;-50
2024/01/12 08:36:45;;;;;;;104.20;30.45;;;3.40;94.80;;;;;;5107517;28;20039;-50
2024/01/12 08:39:10;;;;;;;76.70;28.00;;;3.40;94.80;;;;;;5107051;28;20028;-51
2024/01/12 08:41:36;;;;;;;91.35;29.50;;;3.40;94.80;;;;;;5106223;28;20028;-50
2024/01/12 08:44:02;;;;;;;112.38;33.58;;;3.40;94.80;;;;;;5106782;28;20032;-51
2024/01/12 08:46:27;;;;;;;95.50;29.48;;;3.40;94.90;;;;;;5112885;28;20118;-51
2024/01/12 08:48:54;;;;;;;110.25;32.80;;;3.40;94.90;;;;;;5102364;28;20029;-51
2024/01/12 08:51:20;;;;;;;89.70;31.45;;;3.40;94.70;;;;;;5097838;28;20032;-51
2024/01/12 08:53:46;;;;;;;82.15;29.02;;;3.40;94.70;;;;;;5102592;28;20063;-51
2024/01/12 08:56:11;;;;;;;99.47;31.80;;;3.40;94.70;;;;;;5116447;28;20038;-51
2024/01/12 08:58:38;;;;;;;96.93;31.83;;;3.40;94.70;;;;;;5111681;28;20081;-51
2024/01/12 09:01:04;;;;;;;118.50;32.67;;;3.50;94.70;;;;;;5111311;28;20016;-51
2024/01/12 09:03:30;;;;;;;100.97;31.95;;;3.40;94.70;;;;;;5111431;28;20476;-51
2024/01/12 09:05:55;;;;;;;109.15;31.77;;;3.40;94.70;;;;;;5098412;28;20078;-51
2024/01/12 09:08:21;;;;;;;103.38;33.05;;;3.40;94.70;;;;;;5115983;28;20059;-50
2024/01/12 09:10:46;;;;;;;101.38;30.25;;;3.40;94.70;;;;;;5107950;28;20047;-50
2024/01/12 09:13:12;;;;;;;108.75;31.95;;;3.50;94.70;;;;;;5109129;28;20036;-51
2024/01/12 09:15:37;;;;;;;91.03;31.27;;;3.50;94.60;;;;;;5122512;28;20030;-51
2024/01/12 09:18:04;;;;;;;100.70;31.10;;;3.40;94.60;;;;;;5111598;28;20054;-51
2024/01/12 09:20:32;;;;;;;106.53;32.03;;;3.50;94.70;;;;;;5116066;28;20019;-50
2024/01/12 09:22:58;;;;;;;93.55;33.15;;;3.40;94.80;;;;;;5124234;28;20554;-51
2024/01/12 09:25:23;;;;;;;121.28;31.95;;;3.40;94.80;;;;;;5104215;28;20041;-51
2024/01/12 09:27:50;;;;;;;97.15;31.30;;;3.40;94.90;;;;;;5111093;28;20023;-51
2024/01/12 09:30:16;;;;;;;105.43;31.80;;;3.50;94.70;;;;;;5092162;28;20020;-51
2024/01/12 09:32:41;;;;;;;80.88;28.92;;;3.50;94.70;;;;;;5095203;28;20051;-50
2024/01/12 09:35:08;;;;;;;106.07;31.45;;;3.50;94.80;;;;;;5093957;28;20060;-50
2024/01/12 09:37:34;;;;;;;116.60;34.90;;;3.50;94.80;;;;;;5115879;28;20044;-51
2024/01/12 09:40:00;;;;;;;141.07;36.90;;;3.50;94.90;;;;;;5102204;28;20038;-51
2024/01/12 09:42:25;;;;;;;102.85;31.85;;;3.50;94.90;;;;;;5091825;28;20025;-51
2024/01/12 09:44:52;;;;;;;104.88;30.13;;;3.50;94.80;;;;;;5070619;28;20035;-51
2024/01/12 09:47:17;;;;;;;87.35;29.95;;;3.50;94.70;;;;;;5084869;28;20033;-51
2024/01/12 09:49:43;;;;;;;87.15;33.17;;;3.50;94.80;;;;;;5084860;28;20025;-50
2024/01/12 09:52:09;;;;;;;99.85;32.97;;;3.50;94.80;;;;;;5074171;28;20552;-51
2024/01/12 09:54:35;;;;;;;121.78;35.55;;;3.50;94.70;;;;;;5118903;28;20104;-50
2024/01/12 09:57:02;;;;;;;147.95;34.85;;;3.60;94.80;;;;;;5102077;28;20411;-51
2024/01/12 09:59:28;;;;;;;136.98;35.03;;;3.60;94.80;;;;;;5095719;28;20081;-51
2024/01/12 10:01:56;;;;;;;117.05;34.97;;;3.60;94.80;;;;;;5099038;28;20115;-51
2024/01/12 10:04:21;;;;;;;95.63;32.45;;;3.60;94.70;;;;;;5096962;28;20026;-52
2024/01/12 10:06:47;;;;;;;111.10;32.78;;;3.60;94.80;;;;;;5099664;28;20051;-51
2024/01/12 10:09:13;;;;;;;101.18;32.08;;;3.60;94.90;;;;;;5111997;28;20049;-51
2024/01/12 10:11:38;;;;;;;115.35;33.28;;;3.60;94.90;;;;;;5107433;28;20444;-51
2024/01/12 10:14:04;;;;;;;128.45;36.47;;;3.60;94.90;;;;;;5085433;28;20172;-48
2024/01/12 10:16:30;;;;;;;119.13;34.08;;;3.70;95.00;;;;;;5100628;28;20023;-57
2024/01/12 10:18:56;;;;;;;152.25;36.42;;;3.70;95.00;;;;;;5091357;28;20029;-60
2024/01/12 10:21:23;;;;;;;127.20;34.78;;;3.70;95.00;;;;;;5101373;28;20128;-57
2024/01/12 10:23:49;;;;;;;130.35;35.42;;;3.50;94.90;;;;;;5109152;28;20031;-58
2024/01/12 10:26:17;;;;;;;147.93;38.70;;;3.70;94.90;;;;;;5094634;28;20024;-57
2024/01/12 10:28:44;;;;;;;138.93;36.03;;;3.70;94.90;;;;;;5098056;28;20044;-57
2024/01/12 10:31:10;;;;;;;153.07;36.35;;;3.70;94.90;;;;;;5102035;28;20020;-58
2024/01/12 10:33:36;;;;;;;129.50;35.83;;;3.70;95.00;;;;;;5101283;28;20074;-59
2024/01/12 10:36:25;;;;;;;146.73;36.03;;;3.70;95.10;;;;;;5109425;28;20039;-57
2024/01/12 10:38:51;;;;;;;133.68;35.33;;;3.80;95.30;;;;;;5100958;28;20019;-57
2024/01/12 10:41:20;;;;;;;140.20;36.63;;;3.80;95.10;;;;;;5106755;28;20289;-57
2024/01/12 10:43:46;;;;;;;128.93;34.22;;;3.80;95.00;;;;;;5118048;27;20048;-57
2024/01/12 10:46:13;;;;;;;124.07;35.30;;;3.80;95.00;;;;;;5095016;28;20108;-58
2024/01/12 10:48:55;;;;;;;168.95;36.80;;;3.80;94.80;;;;;;5084964;28;20034;-58
2024/01/12 10:51:21;;;;;;;106.38;32.72;;;3.90;94.80;;;;;;5099385;28;20057;-49
2024/01/12 10:53:55;;;;;;;100.10;32.90;;;3.80;94.70;;;;;;5106746;28;20036;-49
2024/01/12 10:56:21;;;;;;;90.47;30.38;;;3.90;94.70;;;;;;5094709;28;20025;-49
2024/01/12 10:58:48;;;;;;;97.55;32.28;;;3.90;94.50;;;;;;5097255;28;20100;-49
2024/01/12 11:01:13;;;;;;;112.65;34.42;;;3.90;94.30;;;;;;5078444;28;20101;-51
2024/01/12 11:03:39;;;;;;;122.10;34.55;;;3.90;94.30;;;;;;5102796;28;20042;-51
2024/01/12 11:06:05;;;;;;;109.55;33.15;;;3.90;94.30;;;;;;5110078;28;20031;-49
2024/01/12 11:08:30;;;;;;;97.68;31.77;;;4.00;94.30;;;;;;5100508;28;20056;-49
2024/01/12 11:10:56;;;;;;;87.50;30.75;;;4.00;94.20;;;;;;5107747;28;20031;-49
2024/01/12 11:13:22;;;;;;;110.32;31.10;;;4.00;94.20;;;;;;5107064;28;20197;-50
2024/01/12 11:15:50;;;;;;;114.88;30.63;;;4.00;94.20;;;;;;5104735;28;20081;-49
2024/01/12 11:18:16;;;;;;;122.10;34.15;;;4.00;94.10;;;;;;5110858;28;20123;-50
2024/01/12 11:20:44;;;;;;;107.93;33.47;;;4.00;94.10;;;;;;5113609;28;20076;-50
2024/01/12 11:23:10;;;;;;;119.53;32.38;;;4.00;94.00;;;;;;5110988;28;20408;-50
2024/01/12 11:25:35;;;;;;;100.22;31.88;;;4.00;94.00;;;;;;5089052;28;20031;-49
2024/01/12 11:28:01;;;;;;;139.27;34.92;;;4.00;94.10;;;;;;5087228;28;20028;-50
2024/01/12 11:30:28;;;;;;;92.88;31.42;;;4.00;94.10;;;;;;5099877;28;20047;-50
2024/01/12 11:33:04;;;;;;;84.10;30.95;;;4.00;94.10;;;;;;5099963;28;20031;-50
2024/01/12 11:35:30;;;;;;;68.57;28.27;;;4.00;94.00;;;;;;5104841;28;20024;-50
2024/01/12 11:38:02;;;;;;;76.00;28.65;;;4.00;94.00;;;;;;5093576;28;20024;-49
2024/01/12 11:40:28;;;;;;;81.63;29.92;;;4.10;93.90;;;;;;5095474;28;20020;-50
2024/01/12 11:42:53;;;;;;;94.75;29.38;;;4.00;93.90;;;;;;5092306;28;20428;-49
2024/01/12 11:45:19;;;;;;;85.25;29.70;;;4.10;93.90;;;;;;5090483;28;20035;-50
2024/01/12 11:47:45;;;;;;;83.30;31.50;;;4.10;94.00;;;;;;5093056;28;20124;-50
2024/01/12 11:50:11;;;;;;;79.40;28.42;;;4.10;94.20;;;;;;5088399;28;20086;-50
2024/01/12 11:52:37;;;;;;;96.68;31.33;;;4.10;94.10;;;;;;5093912;28;20063;-50
2024/01/12 11:55:09;;;;;;;86.07;28.52;;;4.10;94.00;;;;;;5093618;28;20024;-50
2024/01/12 11:57:38;;;;;;;89.85;29.15;;;4.10;93.90;;;;;;5089402;28;20025;-50
2024/01/12 12:00:04;;;;;;;80.85;30.00;;;4.10;93.90;;;;;;5091256;28;20031;-50
2024/01/12 12:02:30;;;;;;;74.72;29.45;;;4.10;93.90;;;;;;5082612;28;20412;-50
2024/01/12 12:04:56;;;;;;;73.75;28.88;;;4.10;93.80;;;;;;5098397;28;20035;-50
2024/01/12 12:07:25;;;;;;;73.22;27.60;;;4.10;93.80;;;;;;5096259;28;20029;-58
2024/01/12 12:09:51;;;;;;;83.28;28.40;;;4.10;93.80;;;;;;5097758;28;20028;-58
2024/01/12 12:12:17;;;;;;;94.05;27.65;;;4.10;93.80;;;;;;5112435;28;20047;-58
2024/01/12 12:15:07;;;;;;;65.38;26.23;;;4.20;93.80;;;;;;5094527;28;20154;-58
2024/01/12 12:17:44;;;;;;;84.32;27.67;;;4.10;93.70;;;;;;5094130;28;20104;-58
2024/01/12 12:20:11;;;;;;;71.40;26.23;;;4.10;93.70;;;;;;5099299;28;20012;-58
2024/01/12 12:22:44;;;;;;;89.97;27.80;;;4.20;93.70;;;;;;5078417;28;20919;-58
2024/01/12 12:25:13;;;;;;;81.97;29.83;;;4.20;93.70;;;;;;5098363;28;20024;-58
2024/01/12 12:27:43;;;;;;;86.82;28.73;;;4.20;93.70;;;;;;5098565;28;20512;-50
2024/01/12 12:30:10;;;;;;;73.78;27.17;;;4.20;93.70;;;;;;5082262;28;20085;-50